Time;durP1;ratioP1;P1;durP2;ratioP2;P2;SDS_P1;SDS_P2;PMS_P1;PMS_P2;Temp;Humidity;BMP_temperature;BMP_pressure;BME280_temperature;BME280_humidity;BME280_pressure;Samples;Min_cycle;Max_cycle;Signal;HPM_P1;HPM_P2
2022/08/01 00:00:05;;;;;;;2.55;1.50;;;21.10;99.90;;;;;;4945739;28;20142;-55
2022/08/01 00:02:35;;;;;;;;;;;21.10;99.90;;;;;;4947766;29;20112;-55
2022/08/01 00:05:05;;;;;;;2.60;1.63;;;21.10;99.90;;;;;;4949018;28;19949;-55
2022/08/01 00:07:32;;;;;;;6.90;1.80;;;21.10;99.90;;;;;;4949947;28;20495;-54
2022/08/01 00:09:59;;;;;;;2.15;1.63;;;21.10;99.90;;;;;;4950232;28;20511;-58
2022/08/01 00:12:26;;;;;;;3.70;1.55;;;21.10;99.90;;;;;;4949361;28;20146;-53
2022/08/01 00:14:53;;;;;;;1.50;1.35;;;21.10;99.90;;;;;;4948805;28;20130;-55
2022/08/01 00:17:19;;;;;;;2.10;1.48;;;21.10;99.90;;;;;;4948445;28;20097;-59
2022/08/01 00:19:46;;;;;;;3.97;2.15;;;21.00;99.90;;;;;;4948776;28;20138;-53
2022/08/01 00:22:13;;;;;;;2.60;1.70;;;21.00;99.90;;;;;;4948559;28;20075;-54
2022/08/01 00:24:40;;;;;;;2.85;1.38;;;20.90;99.90;;;;;;4948578;28;20043;-55
2022/08/01 00:27:07;;;;;;;2.47;1.42;;;20.90;99.90;;;;;;4948657;28;20082;-52
2022/08/01 00:29:33;;;;;;;4.90;1.48;;;20.90;99.90;;;;;;4949842;28;20087;-52
2022/08/01 00:32:20;;;;;;;2.25;1.55;;;20.80;99.90;;;;;;4949788;29;20047;-52
2022/08/01 00:34:47;;;;;;;3.40;1.58;;;20.80;99.90;;;;;;4949837;28;20055;-56
2022/08/01 00:37:15;;;;;;;2.58;1.63;;;20.80;99.90;;;;;;4950105;28;20043;-54
2022/08/01 00:39:42;;;;;;;1.75;1.50;;;20.70;99.90;;;;;;4949624;28;20051;-61
2022/08/01 00:42:10;;;;;;;4.25;1.65;;;20.70;99.90;;;;;;4949723;29;20739;-55
2022/08/01 00:44:37;;;;;;;2.35;1.55;;;20.70;99.90;;;;;;4948796;29;20051;-54
2022/08/01 00:47:03;;;;;;;3.72;1.40;;;20.70;99.90;;;;;;4949712;28;20051;-55
2022/08/01 00:49:30;;;;;;;4.32;1.48;;;20.60;99.90;;;;;;4949895;28;20134;-54
2022/08/01 00:51:58;;;;;;;2.15;1.30;;;20.60;99.90;;;;;;4949752;28;20050;-53
2022/08/01 00:54:25;;;;;;;3.40;1.35;;;20.60;99.90;;;;;;4949688;28;20051;-53
2022/08/01 00:56:52;;;;;;;2.80;1.50;;;20.50;99.90;;;;;;4949769;29;20079;-54
2022/08/01 00:59:20;;;;;;;3.20;1.40;;;20.50;99.90;;;;;;4948283;29;20701;-54
2022/08/01 01:01:46;;;;;;;1.60;1.10;;;20.50;99.90;;;;;;4933174;29;20055;-54
2022/08/01 01:04:16;;;;;;;2.55;1.27;;;20.50;99.90;;;;;;4951087;28;20067;-54
2022/08/01 01:06:49;;;;;;;2.67;1.60;;;20.40;99.90;;;;;;4953609;28;20086;-51
2022/08/01 01:09:37;;;;;;;1.52;1.20;;;20.40;99.90;;;;;;4953209;28;20047;-54
2022/08/01 01:12:19;;;;;;;4.20;1.35;;;20.40;99.90;;;;;;4944776;29;20083;-50
2022/08/01 01:14:54;;;;;;;3.33;1.77;;;20.40;99.90;;;;;;4951571;29;20494;-48
2022/08/01 01:17:42;;;;;;;3.58;1.40;;;20.40;99.90;;;;;;4952100;29;20079;-51
2022/08/01 01:20:17;;;;;;;1.83;1.27;;;20.40;99.90;;;;;;4953203;28;20130;-52
2022/08/01 01:22:53;;;;;;;1.77;1.08;;;20.30;99.90;;;;;;4951901;28;20573;-50
2022/08/01 01:25:26;;;;;;;2.20;1.20;;;20.30;99.90;;;;;;4950619;29;20078;-49
2022/08/01 01:28:08;;;;;;;3.40;1.38;;;20.40;99.90;;;;;;4953301;28;20434;-53
2022/08/01 01:30:35;;;;;;;1.95;1.63;;;20.40;99.90;;;;;;4951386;29;20098;-52
2022/08/01 01:33:03;;;;;;;3.42;2.03;;;20.40;99.90;;;;;;4599913;28;10000244;-52
2022/08/01 01:35:32;;;;;;;5.40;2.05;;;20.40;99.90;;;;;;4951247;29;20083;-53
2022/08/01 01:38:07;;;;;;;2.75;1.45;;;20.40;99.90;;;;;;4936200;29;20082;-52
2022/08/01 01:40:34;;;;;;;3.60;1.80;;;20.40;99.90;;;;;;4934127;29;20058;-50
2022/08/01 01:43:01;;;;;;;2.75;1.60;;;20.40;99.90;;;;;;4951701;29;20078;-56
2022/08/01 01:45:28;;;;;;;2.17;1.42;;;20.40;99.90;;;;;;4951971;28;20047;-55
2022/08/01 01:47:54;;;;;;;3.80;1.60;;;20.40;99.90;;;;;;4951557;29;20129;-53
2022/08/01 01:50:21;;;;;;;1.92;1.20;;;20.30;99.90;;;;;;4951297;29;20142;-54
2022/08/01 01:52:48;;;;;;;3.20;1.63;;;20.40;99.90;;;;;;4951387;29;20126;-55
2022/08/01 01:55:15;;;;;;;3.63;1.30;;;20.30;99.90;;;;;;4951209;29;20089;-51
2022/08/01 01:57:42;;;;;;;3.65;1.38;;;20.40;99.90;;;;;;4934618;29;20126;-53
2022/08/01 02:00:10;;;;;;;3.97;1.63;;;20.40;99.90;;;;;;4951851;28;20047;-54
2022/08/01 02:02:37;;;;;;;1.83;1.45;;;20.40;99.90;;;;;;4950498;29;20130;-52
2022/08/01 02:05:05;;;;;;;2.22;1.40;;;20.30;99.90;;;;;;4950576;29;20097;-53
2022/08/01 02:07:32;;;;;;;2.05;1.27;;;20.30;99.90;;;;;;4951327;29;20047;-56
2022/08/01 02:09:58;;;;;;;2.72;1.45;;;20.30;99.90;;;;;;4950671;29;20167;-55
2022/08/01 02:12:25;;;;;;;5.10;1.67;;;20.20;99.90;;;;;;4950333;29;20073;-53
2022/08/01 02:14:53;;;;;;;2.17;1.40;;;20.20;99.90;;;;;;4932825;29;20074;-55
2022/08/01 02:17:20;;;;;;;6.90;1.38;;;20.10;99.90;;;;;;4934174;29;20509;-56
2022/08/01 02:19:46;;;;;;;5.00;1.63;;;20.10;99.90;;;;;;4952053;28;20102;-55
2022/08/01 02:22:40;;;;;;;2.15;1.30;;;20.00;99.90;;;;;;4950264;29;20047;-55
2022/08/01 02:25:11;;;;;;;2.70;1.40;;;20.00;99.90;;;;;;4950647;29;20063;-55
2022/08/01 02:27:56;;;;;;;2.47;1.30;;;19.90;99.90;;;;;;4950862;29;20075;-53
2022/08/01 02:30:23;;;;;;;5.72;2.40;;;20.00;99.90;;;;;;4935545;29;20079;-51
2022/08/01 02:33:00;;;;;;;1.58;1.17;;;19.90;99.90;;;;;;4931513;29;20147;-55
2022/08/01 02:35:28;;;;;;;2.90;1.20;;;19.90;99.90;;;;;;4947196;28;20055;-50
2022/08/01 02:37:56;;;;;;;9.30;1.80;;;19.90;99.90;;;;;;4934745;29;20075;-53
2022/08/01 02:40:23;;;;;;;4.65;1.40;;;19.80;99.90;;;;;;4950763;29;20055;-55
2022/08/01 02:42:50;;;;;;;2.40;1.15;;;19.80;99.90;;;;;;4934599;29;20499;-53
2022/08/01 02:45:18;;;;;;;4.90;1.60;;;19.70;99.90;;;;;;4949955;29;20529;-54
2022/08/01 02:47:45;;;;;;;4.72;1.30;;;19.70;99.90;;;;;;4949575;29;20126;-54
2022/08/01 02:50:12;;;;;;;2.70;1.20;;;19.60;99.90;;;;;;4934359;29;20554;-55
2022/08/01 02:52:40;;;;;;;2.45;1.77;;;19.60;99.90;;;;;;4949583;29;20591;-53
2022/08/01 02:55:07;;;;;;;4.38;1.52;;;19.50;99.90;;;;;;4930162;29;20139;-53
2022/08/01 02:57:33;;;;;;;1.90;1.30;;;19.50;99.90;;;;;;4945123;29;20402;-55
2022/08/01 03:00:18;;;;;;;1.92;1.30;;;19.50;99.90;;;;;;4936700;29;20587;-54
2022/08/01 03:02:45;;;;;;;2.05;1.33;;;19.40;99.90;;;;;;4933618;29;20506;-53
2022/08/01 03:05:12;;;;;;;5.45;1.75;;;19.40;99.90;;;;;;4934078;29;20130;-53
2022/08/01 03:07:39;;;;;;;2.50;1.58;;;19.30;99.90;;;;;;4930523;29;20482;-56
2022/08/01 03:10:07;;;;;;;4.38;2.03;;;19.30;99.90;;;;;;4933168;29;20057;-54
2022/08/01 03:12:34;;;;;;;3.92;1.50;;;19.20;99.90;;;;;;4949417;29;20082;-55
2022/08/01 03:15:01;;;;;;;1.42;1.33;;;19.20;99.90;;;;;;4933429;29;20086;-54
2022/08/01 03:17:28;;;;;;;3.03;1.52;;;19.10;99.90;;;;;;4933785;29;20158;-52
2022/08/01 03:19:57;;;;;;;2.97;1.77;;;19.00;99.90;;;;;;4949405;29;20079;-55
2022/08/01 03:22:24;;;;;;;5.03;1.50;;;19.00;99.90;;;;;;4936918;29;20066;-55
2022/08/01 03:24:52;;;;;;;3.30;1.48;;;19.00;99.90;;;;;;4949572;29;20134;-53
2022/08/01 03:27:22;;;;;;;4.45;1.80;;;18.90;99.90;;;;;;4950099;28;20039;-55
2022/08/01 03:29:49;;;;;;;3.22;2.00;;;18.90;99.90;;;;;;4950723;28;20487;-54
2022/08/01 03:32:17;;;;;;;4.97;1.48;;;18.90;99.90;;;;;;4932903;29;20134;-51
2022/08/01 03:34:44;;;;;;;4.85;2.10;;;18.80;99.90;;;;;;4948888;29;20093;-52
2022/08/01 03:37:23;;;;;;;3.60;1.63;;;18.80;99.90;;;;;;4949506;29;20051;-51
2022/08/01 03:39:55;;;;;;;1.67;1.23;;;18.80;99.90;;;;;;4948294;29;20228;-53
2022/08/01 03:42:24;;;;;;;5.72;1.75;;;18.70;99.90;;;;;;4948499;29;20138;-51
2022/08/01 03:44:53;;;;;;;3.22;1.33;;;18.70;99.90;;;;;;4933384;29;20063;-53
2022/08/01 03:47:22;;;;;;;3.78;1.50;;;18.70;99.90;;;;;;4950573;28;20151;-57
2022/08/01 03:49:48;;;;;;;1.95;1.30;;;18.60;99.90;;;;;;4948793;29;20070;-54
2022/08/01 03:52:15;;;;;;;2.63;1.90;;;18.60;99.90;;;;;;4933190;29;20630;-56
2022/08/01 03:54:45;;;;;;;5.25;2.05;;;18.60;99.90;;;;;;4949020;29;20047;-54
2022/08/01 03:57:12;;;;;;;6.40;2.10;;;18.60;99.90;;;;;;4949401;29;20130;-54
2022/08/01 03:59:59;;;;;;;3.20;1.60;;;18.60;99.90;;;;;;4948984;29;20039;-52
2022/08/01 04:02:29;;;;;;;4.13;1.58;;;18.70;99.90;;;;;;4937035;29;20149;-54
2022/08/01 04:04:56;;;;;;;3.58;1.42;;;18.70;99.90;;;;;;4948382;29;20590;-52
2022/08/01 04:07:27;;;;;;;2.92;1.70;;;18.80;99.90;;;;;;4948811;29;20133;-54
2022/08/01 04:09:54;;;;;;;2.40;2.10;;;18.80;99.90;;;;;;4949598;28;20051;-54
2022/08/01 04:12:21;;;;;;;4.80;2.05;;;18.90;99.90;;;;;;4950366;28;20074;-55
2022/08/01 04:14:48;;;;;;;2.83;1.90;;;18.90;99.90;;;;;;4949680;28;20130;-52
2022/08/01 04:17:18;;;;;;;2.47;1.90;;;18.90;99.90;;;;;;4949585;28;20047;-53
2022/08/01 04:19:45;;;;;;;3.03;1.80;;;18.90;99.90;;;;;;4949689;28;20055;-52
2022/08/01 04:22:13;;;;;;;2.45;1.70;;;18.90;99.90;;;;;;4949616;28;20086;-52
2022/08/01 04:24:41;;;;;;;3.38;1.73;;;18.90;99.90;;;;;;4949834;28;20066;-54
2022/08/01 04:27:13;;;;;;;5.25;1.92;;;18.90;99.90;;;;;;4950018;28;20510;-51
2022/08/01 04:29:39;;;;;;;3.70;1.70;;;18.80;99.90;;;;;;4936889;29;20134;-52
2022/08/01 04:32:09;;;;;;;7.95;3.35;;;18.80;99.90;;;;;;4949849;28;20161;-51
2022/08/01 04:34:36;;;;;;;5.30;1.88;;;18.80;99.90;;;;;;4932875;29;20114;-54
2022/08/01 04:37:03;;;;;;;4.35;2.20;;;18.80;99.90;;;;;;4932469;29;20051;-54
2022/08/01 04:39:31;;;;;;;4.00;1.70;;;18.80;99.90;;;;;;4947813;29;20126;-54
2022/08/01 04:41:58;;;;;;;3.45;1.83;;;18.80;99.90;;;;;;4932390;29;20082;-55
2022/08/01 04:44:27;;;;;;;3.08;2.20;;;18.80;99.90;;;;;;4930449;29;20079;-59
2022/08/01 04:47:03;;;;;;;5.70;2.13;;;18.80;99.90;;;;;;4945644;29;20051;-51
2022/08/01 04:49:31;;;;;;;3.22;1.75;;;18.90;99.90;;;;;;4948388;29;20134;-54
2022/08/01 04:52:14;;;;;;;3.53;1.90;;;18.90;99.90;;;;;;4948733;29;20106;-55
2022/08/01 04:54:47;;;;;;;7.30;2.17;;;19.00;99.90;;;;;;4949590;28;20098;-51
2022/08/01 04:57:14;;;;;;;3.78;2.17;;;18.90;99.90;;;;;;4949157;28;20051;-54
2022/08/01 04:59:43;;;;;;;3.60;2.03;;;18.90;99.90;;;;;;4949345;28;20138;-53
2022/08/01 05:02:10;;;;;;;5.97;2.25;;;18.90;99.90;;;;;;4949138;28;20557;-50
2022/08/01 05:04:38;;;;;;;4.13;1.85;;;18.90;99.90;;;;;;4948491;29;20089;-55
2022/08/01 05:07:05;;;;;;;7.28;2.20;;;18.90;99.90;;;;;;4949081;28;20490;-54
2022/08/01 05:09:32;;;;;;;4.13;2.20;;;18.90;99.90;;;;;;4949375;28;20126;-54
2022/08/01 05:12:00;;;;;;;2.83;1.85;;;18.90;99.90;;;;;;4948854;28;20097;-53
2022/08/01 05:14:28;;;;;;;2.20;1.80;;;18.90;99.90;;;;;;4949973;28;20071;-54
2022/08/01 05:16:56;;;;;;;5.55;2.00;;;18.90;99.90;;;;;;4949107;28;20062;-52
2022/08/01 05:19:22;;;;;;;4.60;2.17;;;18.90;99.90;;;;;;4949344;28;20070;-52
2022/08/01 05:21:49;;;;;;;8.20;3.05;;;18.90;99.90;;;;;;4949448;28;20101;-49
2022/08/01 05:24:16;;;;;;;3.05;2.00;;;19.00;99.90;;;;;;4949133;28;20130;-54
2022/08/01 05:26:43;;;;;;;2.45;1.63;;;19.10;99.90;;;;;;4949289;28;20074;-52
2022/08/01 05:29:10;;;;;;;2.70;1.60;;;19.10;99.90;;;;;;4949057;28;20178;-52
2022/08/01 05:31:37;;;;;;;9.65;2.67;;;19.10;99.90;;;;;;4949445;28;20051;-53
2022/08/01 05:34:03;;;;;;;4.32;2.03;;;19.10;99.90;;;;;;4949523;28;20782;-54
2022/08/01 05:36:30;;;;;;;3.67;1.80;;;19.10;99.90;;;;;;4948729;28;20114;-53
2022/08/01 05:38:57;;;;;;;7.35;2.05;;;19.10;99.90;;;;;;4947873;29;20126;-50
2022/08/01 05:41:24;;;;;;;4.85;2.13;;;19.20;99.90;;;;;;4947870;29;20483;-55
2022/08/01 05:43:50;;;;;;;7.03;2.75;;;19.20;99.90;;;;;;4949141;28;20081;-55
2022/08/01 05:46:17;;;;;;;2.60;1.67;;;19.20;99.90;;;;;;4948210;29;20118;-55
2022/08/01 05:48:44;;;;;;;6.63;2.47;;;19.30;99.90;;;;;;4948964;28;20082;-54
2022/08/01 05:51:11;;;;;;;3.47;2.30;;;19.30;99.90;;;;;;4950895;28;20130;-58
2022/08/01 05:53:38;;;;;;;31.33;6.05;;;19.30;99.90;;;;;;4952320;28;20167;-54
2022/08/01 05:56:05;;;;;;;13.77;3.20;;;19.40;99.90;;;;;;4952280;28;20122;-53
2022/08/01 05:58:32;;;;;;;4.82;2.60;;;19.50;99.90;;;;;;4951787;28;20492;-51
2022/08/01 06:00:59;;;;;;;9.32;2.50;;;19.50;99.90;;;;;;4952471;28;20209;-54
2022/08/01 06:03:26;;;;;;;5.30;1.98;;;19.50;99.90;;;;;;4952197;28;20070;-52
2022/08/01 06:05:52;;;;;;;7.93;2.53;;;19.50;99.90;;;;;;4946811;28;20259;-54
2022/08/01 06:08:19;;;;;;;10.82;3.15;;;19.60;99.90;;;;;;4949254;28;20094;-53
2022/08/01 06:10:46;;;;;;;5.93;3.10;;;19.60;99.90;;;;;;4947532;28;20135;-54
2022/08/01 06:13:13;;;;;;;5.13;2.50;;;19.70;99.90;;;;;;4948318;28;20126;-55
2022/08/01 06:15:40;;;;;;;4.07;2.63;;;19.80;99.90;;;;;;4952000;28;20138;-55
2022/08/01 06:18:06;;;;;;;3.55;1.77;;;19.80;99.90;;;;;;4951609;28;20122;-51
2022/08/01 06:20:33;;;;;;;9.40;2.90;;;19.80;99.90;;;;;;4951600;28;20047;-52
2022/08/01 06:23:00;;;;;;;34.53;6.53;;;19.90;99.90;;;;;;4948732;29;20130;-50
2022/08/01 06:25:47;;;;;;;17.50;3.53;;;20.00;99.90;;;;;;4945173;29;20049;-53
2022/08/01 06:28:14;;;;;;;8.73;2.35;;;20.00;99.90;;;;;;4951569;28;20090;-54
2022/08/01 06:30:40;;;;;;;11.93;2.80;;;20.10;99.90;;;;;;4951654;28;20138;-55
2022/08/01 06:33:08;;;;;;;7.25;2.15;;;20.10;99.90;;;;;;4951595;28;20257;-53
2022/08/01 06:35:35;;;;;;;10.75;2.83;;;20.20;99.90;;;;;;4951432;28;20067;-54
2022/08/01 06:38:02;;;;;;;4.53;2.55;;;20.10;99.90;;;;;;4934637;29;20083;-54
2022/08/01 06:40:29;;;;;;;7.43;2.85;;;20.00;99.90;;;;;;4951258;28;20142;-55
2022/08/01 06:42:56;;;;;;;6.32;2.13;;;19.90;99.90;;;;;;4950474;29;20048;-55
2022/08/01 06:45:25;;;;;;;8.73;2.55;;;19.90;99.90;;;;;;4950725;28;20107;-51
2022/08/01 06:47:52;;;;;;;11.75;3.10;;;20.00;99.90;;;;;;4950516;28;20055;-54
2022/08/01 06:50:19;;;;;;;8.88;2.42;;;20.00;99.90;;;;;;4950435;28;20078;-56
2022/08/01 06:52:46;;;;;;;10.15;2.25;;;20.10;99.90;;;;;;4950745;28;20082;-53
2022/08/01 06:55:12;;;;;;;10.82;4.05;;;20.20;99.90;;;;;;4950658;28;20138;-50
2022/08/01 06:57:49;;;;;;;8.60;3.47;;;20.20;99.90;;;;;;4950670;29;20552;-53
2022/08/01 07:00:18;;;;;;;8.13;4.05;;;20.10;99.90;;;;;;4949861;29;20047;-54
2022/08/01 07:02:45;;;;;;;4.93;2.28;;;20.20;99.90;;;;;;4948683;28;20051;-51
2022/08/01 07:05:12;;;;;;;16.38;3.58;;;20.20;99.90;;;;;;4949817;28;20158;-50
2022/08/01 07:07:39;;;;;;;10.77;4.28;;;20.30;99.90;;;;;;4604834;28;10000456;-53
2022/08/01 07:10:08;;;;;;;25.10;4.35;;;20.20;99.90;;;;;;4947636;28;20082;-54
2022/08/01 07:12:37;;;;;;;6.72;3.40;;;20.20;99.90;;;;;;4946954;29;20066;-52
2022/08/01 07:15:05;;;;;;;21.65;3.83;;;20.30;99.90;;;;;;4947434;28;20078;-55
2022/08/01 07:17:32;;;;;;;7.53;3.20;;;20.30;99.90;;;;;;4947067;28;20102;-51
2022/08/01 07:19:59;;;;;;;11.45;3.10;;;20.30;99.90;;;;;;4947302;28;20083;-54
2022/08/01 07:22:26;;;;;;;9.43;3.60;;;20.30;99.90;;;;;;4947648;28;20043;-53
2022/08/01 07:24:52;;;;;;;6.68;2.85;;;20.30;99.90;;;;;;4947308;28;20138;-54
2022/08/01 07:27:20;;;;;;;9.75;2.70;;;20.30;99.90;;;;;;4946670;28;20051;-54
2022/08/01 07:29:51;;;;;;;6.03;2.97;;;20.30;99.90;;;;;;4947187;28;20831;-53
2022/08/01 07:32:19;;;;;;;10.18;2.78;;;20.40;99.90;;;;;;4946061;28;20047;-53
2022/08/01 07:34:46;;;;;;;4.22;2.55;;;20.60;99.90;;;;;;4945585;28;20090;-53
2022/08/01 07:37:13;;;;;;;7.35;2.33;;;20.60;99.90;;;;;;4945705;28;20043;-51
2022/08/01 07:39:39;;;;;;;4.65;1.88;;;20.60;99.90;;;;;;4945804;28;20090;-57
2022/08/01 07:42:07;;;;;;;4.35;2.60;;;20.70;99.90;;;;;;4945169;28;20143;-53
2022/08/01 07:44:34;;;;;;;9.43;2.90;;;20.80;99.90;;;;;;4928606;29;20063;-55
2022/08/01 07:47:01;;;;;;;9.93;3.03;;;20.80;99.90;;;;;;4945600;28;20471;-53
2022/08/01 07:49:28;;;;;;;9.52;2.97;;;20.70;99.90;;;;;;4947238;28;20070;-54
2022/08/01 07:51:55;;;;;;;9.68;3.15;;;20.70;99.90;;;;;;4945763;29;20122;-52
2022/08/01 07:54:39;;;;;;;7.13;2.28;;;20.80;99.90;;;;;;4946305;28;20055;-53
2022/08/01 07:57:06;;;;;;;6.22;2.17;;;20.90;99.90;;;;;;4945171;29;20210;-54
2022/08/01 07:59:34;;;;;;;6.22;2.70;;;21.00;99.90;;;;;;4947175;28;20314;-55
2022/08/01 08:02:00;;;;;;;19.55;3.50;;;21.10;99.90;;;;;;4946580;28;20086;-56
2022/08/01 08:04:28;;;;;;;7.45;2.15;;;21.20;99.90;;;;;;4946546;28;20051;-52
2022/08/01 08:06:54;;;;;;;2.95;2.00;;;21.30;99.90;;;;;;4946140;28;20142;-52
2022/08/01 08:09:21;;;;;;;7.50;2.92;;;21.30;99.90;;;;;;4947064;28;20058;-54
2022/08/01 08:11:48;;;;;;;5.38;2.95;;;21.40;99.90;;;;;;4946208;28;20125;-52
2022/08/01 08:14:16;;;;;;;8.90;3.03;;;21.40;99.90;;;;;;4938397;29;20051;-53
2022/08/01 08:16:43;;;;;;;5.45;2.63;;;21.40;99.90;;;;;;4945966;28;20105;-53
2022/08/01 08:19:10;;;;;;;5.20;2.10;;;21.40;99.90;;;;;;4946225;28;20051;-51
2022/08/01 08:21:37;;;;;;;6.63;1.92;;;21.50;99.90;;;;;;4946526;28;20083;-53
2022/08/01 08:24:20;;;;;;;6.32;2.03;;;21.50;99.90;;;;;;4945092;29;20055;-52
2022/08/01 08:26:55;;;;;;;4.22;1.80;;;21.70;99.90;;;;;;4946602;28;20051;-51
2022/08/01 08:29:22;;;;;;;7.22;2.20;;;21.70;99.90;;;;;;4946533;28;20046;-53
2022/08/01 08:31:49;;;;;;;9.20;2.22;;;21.70;99.90;;;;;;4945614;28;20098;-50
2022/08/01 08:34:18;;;;;;;2.67;1.48;;;21.70;99.90;;;;;;4945756;29;20102;-51
2022/08/01 08:36:45;;;;;;;8.00;2.65;;;21.80;99.90;;;;;;4946493;28;20093;-52
2022/08/01 08:39:13;;;;;;;13.23;3.38;;;21.80;99.90;;;;;;4946093;28;20418;-51
2022/08/01 08:41:43;;;;;;;4.30;1.75;;;21.80;99.90;;;;;;4947563;28;20475;-51
2022/08/01 08:44:15;;;;;;;3.50;1.77;;;21.90;99.90;;;;;;4948737;29;20091;-52
2022/08/01 08:46:47;;;;;;;6.30;2.70;;;21.90;99.90;;;;;;4949402;28;20052;-54
2022/08/01 08:49:22;;;;;;;2.83;1.70;;;22.00;99.90;;;;;;4944344;28;20173;-54
2022/08/01 08:51:50;;;;;;;3.30;1.58;;;22.00;99.90;;;;;;4946164;28;20058;-52
2022/08/01 08:54:18;;;;;;;5.97;1.52;;;22.10;99.90;;;;;;4945918;28;20081;-55
2022/08/01 08:56:45;;;;;;;4.68;1.75;;;22.10;99.90;;;;;;4946196;28;20131;-51
2022/08/01 08:59:15;;;;;;;4.63;2.35;;;22.20;99.90;;;;;;4943924;29;20059;-54
2022/08/01 09:01:42;;;;;;;4.55;1.83;;;22.20;99.90;;;;;;4944604;29;20630;-52
2022/08/01 09:04:09;;;;;;;2.35;1.60;;;22.30;99.90;;;;;;4945944;28;20470;-54
2022/08/01 09:06:36;;;;;;;5.90;1.77;;;22.30;99.90;;;;;;4945603;28;20055;-52
2022/08/01 09:09:03;;;;;;;2.72;1.52;;;22.40;99.90;;;;;;4945974;28;20130;-55
2022/08/01 09:11:30;;;;;;;3.97;1.88;;;22.60;99.90;;;;;;4945557;28;20138;-53
2022/08/01 09:14:13;;;;;;;5.63;2.15;;;22.60;99.90;;;;;;4944437;29;20102;-54
2022/08/01 09:16:44;;;;;;;3.63;1.80;;;22.70;99.90;;;;;;4945876;28;20051;-50
2022/08/01 09:19:14;;;;;;;6.32;1.70;;;22.80;99.90;;;;;;4945696;28;20130;-54
2022/08/01 09:22:04;;;;;;;10.02;2.47;;;22.80;99.90;;;;;;4946010;28;20063;-52
2022/08/01 09:24:32;;;;;;;6.05;1.63;;;22.60;99.90;;;;;;4933675;28;20143;-53
2022/08/01 09:26:59;;;;;;;2.97;1.95;;;22.60;99.90;;;;;;4949609;28;20051;-53
2022/08/01 09:29:31;;;;;;;5.45;2.05;;;22.70;99.90;;;;;;4949404;28;20442;-54
2022/08/01 09:32:06;;;;;;;3.47;1.40;;;22.70;99.90;;;;;;4949331;28;20058;-54
2022/08/01 09:34:42;;;;;;;3.05;1.65;;;22.70;99.90;;;;;;4949273;28;20087;-53
2022/08/01 09:37:12;;;;;;;5.22;1.83;;;22.70;99.90;;;;;;4948856;28;20431;-51
2022/08/01 09:39:42;;;;;;;6.47;1.33;;;22.70;99.90;;;;;;4949368;28;20525;-56
2022/08/01 09:42:21;;;;;;;3.53;1.50;;;22.80;99.90;;;;;;4941997;29;20106;-51
2022/08/01 09:44:55;;;;;;;5.13;1.30;;;22.90;99.40;;;;;;4949936;28;20039;-56
2022/08/01 09:47:22;;;;;;;5.07;1.60;;;22.90;99.90;;;;;;4949269;28;20055;-54
2022/08/01 09:49:55;;;;;;;3.13;1.58;;;23.00;99.90;;;;;;4948477;29;20097;-54
2022/08/01 09:52:26;;;;;;;4.13;1.85;;;23.10;99.30;;;;;;4947714;29;20476;-52
2022/08/01 09:55:05;;;;;;;8.80;1.77;;;23.10;99.00;;;;;;4948172;29;20059;-55
2022/08/01 09:57:32;;;;;;;3.92;2.22;;;23.00;99.60;;;;;;4948516;29;20094;-54
2022/08/01 10:00:00;;;;;;;2.60;1.40;;;23.10;99.90;;;;;;4946627;29;20051;-54
2022/08/01 10:02:31;;;;;;;7.20;1.60;;;23.10;99.40;;;;;;4949069;28;20070;-51
2022/08/01 10:05:03;;;;;;;3.65;1.38;;;23.20;99.60;;;;;;4949226;28;20055;-54
2022/08/01 10:07:35;;;;;;;3.40;1.58;;;23.30;99.40;;;;;;4945249;29;20562;-52
2022/08/01 10:10:13;;;;;;;5.32;1.60;;;23.30;99.20;;;;;;4948927;28;20066;-53
2022/08/01 10:12:41;;;;;;;2.33;1.45;;;23.50;98.60;;;;;;4943452;29;20504;-55
2022/08/01 10:15:13;;;;;;;7.00;1.90;;;23.40;98.80;;;;;;4949242;28;20725;-53
2022/08/01 10:17:40;;;;;;;3.03;1.10;;;23.50;98.60;;;;;;4947636;29;20055;-53
2022/08/01 10:20:21;;;;;;;11.27;1.30;;;23.60;97.90;;;;;;4947690;29;20565;-50
2022/08/01 10:23:03;;;;;;;2.70;1.00;;;23.70;97.60;;;;;;4929521;29;20066;-52
2022/08/01 10:25:37;;;;;;;6.18;1.65;;;24.00;96.80;;;;;;4948998;28;20502;-54
2022/08/01 10:28:16;;;;;;;7.53;1.42;;;24.50;96.40;;;;;;4946262;29;20051;-51
2022/08/01 10:30:45;;;;;;;2.80;1.13;;;25.10;95.30;;;;;;4948743;28;20196;-53
2022/08/01 10:33:14;;;;;;;5.25;1.20;;;25.50;95.00;;;;;;4948280;28;20074;-53
2022/08/01 10:36:02;;;;;;;10.73;1.73;;;25.70;93.80;;;;;;4946152;28;20128;-54
2022/08/01 10:38:34;;;;;;;5.10;1.50;;;25.30;92.90;;;;;;4947035;29;20113;-52
2022/08/01 10:41:03;;;;;;;5.50;1.58;;;25.10;93.10;;;;;;4947324;29;20047;-51
2022/08/01 10:43:32;;;;;;;6.63;1.70;;;24.80;93.10;;;;;;4947900;28;20062;-52
2022/08/01 10:46:01;;;;;;;6.10;1.50;;;24.80;93.60;;;;;;4947273;29;20127;-51
2022/08/01 10:49:05;;;;;;;4.20;1.40;;;24.70;93.30;;;;;;4946517;29;20046;-51
2022/08/01 10:51:37;;;;;;;4.55;1.20;;;24.60;91.60;;;;;;4941625;29;20051;-53
2022/08/01 10:54:20;;;;;;;5.35;1.25;;;24.60;93.40;;;;;;4944970;29;20054;-54
2022/08/01 10:56:51;;;;;;;8.63;1.83;;;24.60;93.30;;;;;;4913200;29;20048;-52
2022/08/01 10:59:28;;;;;;;2.63;1.52;;;24.60;93.30;;;;;;4944059;29;20047;-56
2022/08/01 11:02:31;;;;;;;7.43;1.45;;;24.70;92.30;;;;;;4945155;28;20538;-53
2022/08/01 11:05:01;;;;;;;3.70;1.38;;;24.60;90.90;;;;;;4940368;28;20142;-50
2022/08/01 11:07:45;;;;;;;3.28;1.30;;;24.70;92.20;;;;;;4936088;28;20625;-53
2022/08/01 11:10:22;;;;;;;5.13;1.83;;;24.80;91.60;;;;;;4940010;29;20134;-51
2022/08/01 11:12:50;;;;;;;3.00;1.20;;;24.90;90.80;;;;;;4937704;28;20058;-54
2022/08/01 11:15:24;;;;;;;2.75;1.67;;;25.00;91.00;;;;;;4947253;28;20147;-54
2022/08/01 11:17:57;;;;;;;3.90;0.98;;;25.00;91.30;;;;;;4946838;28;20051;-54
2022/08/01 11:20:30;;;;;;;2.47;1.33;;;25.00;91.00;;;;;;4939259;28;20054;-53
2022/08/01 11:25:37;;;;;;;4.30;1.45;;;25.00;90.20;;;;;;4946067;28;20047;-50
2022/08/01 11:28:25;;;;;;;6.60;1.60;;;25.10;89.30;;;;;;4946546;28;20053;-54
2022/08/01 11:31:07;;;;;;;2.28;1.40;;;25.20;90.40;;;;;;4947683;28;20134;-50
2022/08/01 11:33:47;;;;;;;9.02;1.83;;;25.30;88.10;;;;;;4947445;28;20061;-53
2022/08/01 11:36:17;;;;;;;6.95;1.60;;;25.40;88.50;;;;;;4947243;28;20055;-52
2022/08/01 11:38:59;;;;;;;4.38;1.40;;;25.50;88.60;;;;;;4947694;28;20047;-52
2022/08/01 11:41:31;;;;;;;2.40;0.80;;;25.30;86.50;;;;;;4942702;29;20402;-53
2022/08/01 11:44:13;;;;;;;2.80;1.20;;;25.10;87.70;;;;;;4946002;29;20062;-55
2022/08/01 11:46:58;;;;;;;5.00;1.52;;;25.20;86.40;;;;;;4947500;28;20265;-51
2022/08/01 11:49:33;;;;;;;12.23;1.63;;;25.10;84.70;;;;;;4935965;29;20058;-50
2022/08/01 11:52:09;;;;;;;3.33;1.23;;;24.90;87.70;;;;;;4947317;28;20051;-53
2022/08/01 11:54:44;;;;;;;3.75;0.90;;;24.80;87.50;;;;;;4939862;29;20071;-53
2022/08/01 11:57:24;;;;;;;2.03;1.27;;;24.80;86.90;;;;;;4945892;29;20130;-54
2022/08/01 12:00:03;;;;;;;2.33;1.55;;;24.90;87.20;;;;;;4938028;29;20050;-50
2022/08/01 12:02:34;;;;;;;2.38;1.10;;;24.80;88.50;;;;;;4947030;28;20050;-59
2022/08/01 12:05:04;;;;;;;2.20;0.90;;;24.80;88.30;;;;;;4943680;28;20055;-56
2022/08/01 12:07:36;;;;;;;2.70;1.25;;;24.80;88.90;;;;;;4945358;28;20130;-54
2022/08/01 12:10:08;;;;;;;3.92;1.20;;;25.00;88.20;;;;;;4946970;28;20078;-52
2022/08/01 12:12:36;;;;;;;3.55;1.02;;;25.10;87.00;;;;;;4946741;28;20058;-54
2022/08/01 12:15:05;;;;;;;3.17;1.15;;;25.20;87.60;;;;;;4943999;28;20134;-55
2022/08/01 12:17:36;;;;;;;3.47;1.13;;;25.30;87.70;;;;;;4947044;28;20162;-55
2022/08/01 12:20:05;;;;;;;2.92;0.98;;;25.30;87.80;;;;;;4946938;28;20578;-56
2022/08/01 12:22:31;;;;;;;3.05;1.45;;;25.30;86.50;;;;;;4940015;29;20113;-55
2022/08/01 12:25:06;;;;;;;6.60;2.10;;;25.40;87.30;;;;;;4946737;28;20051;-55
2022/08/01 12:27:33;;;;;;;3.50;1.20;;;25.40;87.10;;;;;;4946551;28;20093;-54
2022/08/01 12:30:00;;;;;;;1.80;1.13;;;25.50;87.40;;;;;;4946799;28;20051;-53
2022/08/01 12:32:30;;;;;;;1.35;1.15;;;25.60;87.90;;;;;;4945754;29;20063;-52
2022/08/01 12:35:13;;;;;;;6.22;1.40;;;25.70;87.40;;;;;;4939608;28;20422;-51
2022/08/01 12:37:44;;;;;;;2.73;1.20;;;25.70;85.60;;;;;;4944817;29;20482;-55
2022/08/01 12:40:20;;;;;;;1.25;1.00;;;25.60;87.40;;;;;;4947410;28;20144;-54
2022/08/01 12:42:52;;;;;;;5.15;1.27;;;25.50;86.10;;;;;;4943891;29;20091;-56
2022/08/01 12:45:46;;;;;;;3.92;0.98;;;25.40;88.00;;;;;;4947590;28;20122;-52
2022/08/01 12:48:22;;;;;;;2.72;0.90;;;25.30;88.00;;;;;;4938036;29;20155;-55
2022/08/01 12:50:49;;;;;;;4.55;1.02;;;25.30;88.30;;;;;;4929558;29;20154;-51
2022/08/01 12:53:15;;;;;;;3.00;1.35;;;25.30;88.10;;;;;;4946928;28;20057;-55
2022/08/01 12:55:49;;;;;;;5.95;1.48;;;25.40;88.60;;;;;;4946941;28;20051;-57
2022/08/01 12:58:34;;;;;;;4.80;1.17;;;25.40;88.40;;;;;;4944342;29;20066;-57
2022/08/01 13:01:08;;;;;;;3.67;1.15;;;25.50;87.70;;;;;;4949258;28;20086;-54
2022/08/01 13:03:36;;;;;;;3.85;1.23;;;25.60;87.40;;;;;;4950533;28;20468;-52